Time;durP1;ratioP1;P1;durP2;ratioP2;P2;SDS_P1;SDS_P2;PMS_P1;PMS_P2;Temp;Humidity;BMP_temperature;BMP_pressure;BME280_temperature;BME280_humidity;BME280_pressure;Samples;Min_cycle;Max_cycle;Signal;HPM_P1;HPM_P2
2021/09/09 00:02:05;;;;;;;7.50;6.80;;;15.40;99.90;;;;;;5102752;27;20197;-50
2021/09/09 00:04:32;;;;;;;8.17;6.83;;;15.50;99.90;;;;;;5122956;27;20216;-48
2021/09/09 00:06:58;;;;;;;11.70;7.20;;;15.50;99.90;;;;;;5122249;27;20276;-48
2021/09/09 00:09:25;;;;;;;7.47;6.50;;;15.50;99.90;;;;;;5124965;27;20188;-47
2021/09/09 00:11:52;;;;;;;6.87;6.20;;;15.40;99.90;;;;;;5120907;27;20177;-46
2021/09/09 00:14:20;;;;;;;10.10;6.20;;;15.40;99.90;;;;;;5126171;27;20720;-44
2021/09/09 00:16:49;;;;;;;7.10;6.40;;;15.40;99.90;;;;;;5119002;27;20227;-44
2021/09/09 00:19:19;;;;;;;8.30;7.03;;;15.40;99.90;;;;;;5124752;27;20197;-45
2021/09/09 00:21:47;;;;;;;7.37;6.60;;;15.30;99.90;;;;;;5120462;27;20307;-49
2021/09/09 00:24:16;;;;;;;10.37;6.50;;;15.30;99.90;;;;;;5125302;27;20277;-51
2021/09/09 00:26:44;;;;;;;7.00;6.30;;;15.30;99.90;;;;;;5121337;27;20581;-51
2021/09/09 00:29:10;;;;;;;10.13;6.63;;;15.30;99.90;;;;;;5124564;27;20195;-47
2021/09/09 00:31:38;;;;;;;8.40;7.30;;;15.30;99.90;;;;;;5115242;27;20192;-52
2021/09/09 00:34:05;;;;;;;8.07;7.23;;;15.30;99.90;;;;;;5118570;27;20216;-49
2021/09/09 00:36:33;;;;;;;7.33;6.63;;;15.30;99.90;;;;;;5123493;27;20633;-50
2021/09/09 00:38:59;;;;;;;11.17;7.70;;;15.30;99.90;;;;;;5114723;27;20274;-45
2021/09/09 00:41:30;;;;;;;9.70;6.67;;;15.30;99.90;;;;;;5120745;27;20209;-46
2021/09/09 00:43:57;;;;;;;11.30;7.80;;;15.20;99.90;;;;;;5122461;27;20217;-48
2021/09/09 00:46:25;;;;;;;7.43;6.70;;;15.30;99.90;;;;;;5132669;27;20192;-49
2021/09/09 00:48:52;;;;;;;8.23;7.23;;;15.20;99.90;;;;;;5114187;27;20204;-49
2021/09/09 00:51:19;;;;;;;9.10;7.30;;;15.20;99.90;;;;;;5121724;27;20185;-45
2021/09/09 00:53:47;;;;;;;10.87;6.80;;;15.20;99.90;;;;;;5123483;27;20196;-44
2021/09/09 00:56:14;;;;;;;8.47;7.47;;;15.20;99.90;;;;;;5122873;27;20201;-47
2021/09/09 00:58:44;;;;;;;8.67;7.00;;;15.20;99.90;;;;;;5121599;27;20917;-45
2021/09/09 01:01:11;;;;;;;9.50;7.80;;;15.20;99.90;;;;;;5123023;27;20211;-48
2021/09/09 01:03:38;;;;;;;8.67;7.40;;;15.20;99.90;;;;;;5107226;27;20210;-49
2021/09/09 01:06:04;;;;;;;8.27;7.47;;;15.20;99.90;;;;;;5123556;27;20208;-47
2021/09/09 01:08:32;;;;;;;9.73;7.70;;;15.10;99.90;;;;;;5120511;27;20192;-47
2021/09/09 01:11:01;;;;;;;8.20;7.40;;;15.10;99.90;;;;;;5124204;27;20192;-46
2021/09/09 01:13:27;;;;;;;7.83;6.80;;;15.10;99.90;;;;;;5119052;27;20192;-46
2021/09/09 01:15:54;;;;;;;11.10;7.87;;;15.10;99.90;;;;;;5131660;27;20212;-47
2021/09/09 01:18:20;;;;;;;12.47;8.57;;;15.10;99.90;;;;;;5142068;27;20320;-50
2021/09/09 01:20:47;;;;;;;7.73;7.00;;;15.10;99.90;;;;;;5113366;27;20220;-48
2021/09/09 01:23:14;;;;;;;9.80;8.23;;;15.10;99.90;;;;;;5112849;27;20211;-47
2021/09/09 01:25:42;;;;;;;8.60;7.70;;;15.10;99.90;;;;;;5121925;27;20235;-48
2021/09/09 01:28:09;;;;;;;12.50;8.07;;;15.10;99.90;;;;;;5122083;27;20654;-48
2021/09/09 01:30:37;;;;;;;9.60;7.67;;;15.10;99.90;;;;;;5120616;27;20189;-47
2021/09/09 01:33:04;;;;;;;11.73;7.80;;;15.00;99.90;;;;;;5124197;27;20200;-44
2021/09/09 01:35:31;;;;;;;9.13;7.23;;;15.10;99.90;;;;;;5106085;27;20226;-45
2021/09/09 01:37:59;;;;;;;10.53;8.40;;;15.10;99.90;;;;;;5122762;27;20196;-51
2021/09/09 01:40:30;;;;;;;10.67;7.40;;;15.10;99.90;;;;;;5120417;27;20200;-46
2021/09/09 01:43:00;;;;;;;11.47;7.57;;;15.10;99.90;;;;;;5128211;27;20189;-48
2021/09/09 01:45:27;;;;;;;8.97;7.50;;;15.10;99.90;;;;;;5128613;27;20220;-44
2021/09/09 01:47:53;;;;;;;8.37;7.57;;;15.10;99.90;;;;;;5146106;27;20191;-46
2021/09/09 01:50:20;;;;;;;10.30;7.50;;;15.10;99.90;;;;;;5132452;27;20192;-46
2021/09/09 01:52:47;;;;;;;8.43;7.63;;;15.00;99.90;;;;;;5125355;27;20203;-46
2021/09/09 01:55:14;;;;;;;10.80;7.90;;;15.00;99.90;;;;;;5125970;27;20219;-47
2021/09/09 01:57:41;;;;;;;8.63;7.80;;;15.00;99.90;;;;;;5125123;27;20368;-48
2021/09/09 02:00:10;;;;;;;9.13;7.80;;;15.00;99.90;;;;;;5126746;27;20245;-47
2021/09/09 02:02:40;;;;;;;11.53;8.07;;;14.90;99.90;;;;;;5125592;27;20209;-48
2021/09/09 02:05:07;;;;;;;10.43;8.67;;;14.90;99.90;;;;;;5127499;27;20783;-48
2021/09/09 02:07:34;;;;;;;10.03;8.80;;;14.90;99.90;;;;;;5113794;27;20197;-46
2021/09/09 02:10:00;;;;;;;9.77;8.67;;;14.80;99.90;;;;;;5127119;27;20200;-48
2021/09/09 02:12:27;;;;;;;11.70;8.90;;;14.80;99.90;;;;;;5123409;27;20193;-44
2021/09/09 02:14:53;;;;;;;11.70;9.10;;;14.70;99.90;;;;;;5132046;27;20611;-47
2021/09/09 02:17:22;;;;;;;10.47;9.47;;;14.70;99.90;;;;;;5137685;27;20191;-46
2021/09/09 02:19:48;;;;;;;11.83;10.20;;;14.70;99.90;;;;;;5147668;27;20192;-48
2021/09/09 02:22:15;;;;;;;9.97;8.87;;;14.60;99.90;;;;;;5136969;27;20216;-47
2021/09/09 02:24:45;;;;;;;13.13;10.00;;;14.60;99.90;;;;;;5120105;27;20223;-44
2021/09/09 02:27:12;;;;;;;11.53;9.63;;;14.60;99.90;;;;;;5105330;28;20193;-48
2021/09/09 02:29:39;;;;;;;11.20;9.73;;;14.50;99.90;;;;;;5104429;28;20209;-44
2021/09/09 02:32:06;;;;;;;10.03;8.80;;;14.50;99.90;;;;;;5106463;28;20203;-46
2021/09/09 02:34:35;;;;;;;11.40;9.50;;;14.50;99.90;;;;;;5102997;28;20213;-45
2021/09/09 02:37:01;;;;;;;11.17;9.77;;;14.40;99.90;;;;;;5106694;27;20197;-45
2021/09/09 02:39:28;;;;;;;9.80;8.83;;;14.40;99.90;;;;;;5097908;27;20976;-46
2021/09/09 02:41:55;;;;;;;9.87;8.87;;;14.40;99.90;;;;;;5126723;27;20212;-45
2021/09/09 02:44:22;;;;;;;11.53;9.47;;;14.40;99.90;;;;;;5124458;27;20227;-48
2021/09/09 02:46:48;;;;;;;12.33;9.83;;;14.40;99.90;;;;;;5138599;27;20193;-45
2021/09/09 02:49:15;;;;;;;10.53;9.43;;;14.40;99.90;;;;;;5144803;27;20188;-46
2021/09/09 02:51:43;;;;;;;14.47;9.87;;;14.40;99.90;;;;;;5144939;27;20281;-45
2021/09/09 02:54:09;;;;;;;11.67;8.53;;;14.40;99.90;;;;;;5141537;27;20211;-49
2021/09/09 02:56:36;;;;;;;11.53;9.33;;;14.40;99.90;;;;;;5112335;27;20193;-44
2021/09/09 02:59:02;;;;;;;10.50;9.40;;;14.40;99.90;;;;;;5126247;27;20201;-46
2021/09/09 03:01:29;;;;;;;10.50;9.10;;;14.40;99.90;;;;;;5122100;27;20200;-47
2021/09/09 03:03:56;;;;;;;11.80;9.30;;;14.40;99.90;;;;;;5126552;27;20216;-45
2021/09/09 03:06:22;;;;;;;10.43;9.33;;;14.40;99.90;;;;;;5122565;27;20654;-51
2021/09/09 03:08:50;;;;;;;11.07;9.10;;;14.40;99.90;;;;;;5126124;27;20207;-44
2021/09/09 03:11:17;;;;;;;11.20;9.07;;;14.40;99.90;;;;;;5110624;27;20568;-46
2021/09/09 03:13:44;;;;;;;12.13;9.77;;;14.30;99.90;;;;;;5121256;27;20186;-46
2021/09/09 03:16:10;;;;;;;11.30;9.10;;;14.40;99.90;;;;;;5125210;27;20558;-49
2021/09/09 03:18:37;;;;;;;13.23;8.90;;;14.40;99.90;;;;;;5123744;27;20184;-45
2021/09/09 03:21:03;;;;;;;9.47;8.50;;;14.30;99.90;;;;;;5125625;27;20216;-50
2021/09/09 03:23:30;;;;;;;12.80;9.33;;;14.30;99.90;;;;;;5122043;27;20189;-48
2021/09/09 03:25:58;;;;;;;10.20;9.17;;;14.30;99.90;;;;;;5112906;27;20224;-44
2021/09/09 03:28:24;;;;;;;11.57;8.80;;;14.30;99.90;;;;;;5121590;27;20196;-50
2021/09/09 03:30:51;;;;;;;11.47;9.90;;;14.30;99.90;;;;;;5125738;27;20195;-48
2021/09/09 03:33:18;;;;;;;11.27;9.53;;;14.20;99.90;;;;;;5122946;27;20189;-47
2021/09/09 03:35:44;;;;;;;11.20;9.77;;;14.30;99.90;;;;;;5124687;27;20223;-46
2021/09/09 03:38:11;;;;;;;11.63;9.97;;;14.20;99.90;;;;;;5124301;27;20188;-47
2021/09/09 03:40:38;;;;;;;13.37;10.43;;;14.20;99.90;;;;;;5123146;27;20901;-46
2021/09/09 03:43:05;;;;;;;12.63;10.60;;;14.10;99.90;;;;;;5109734;27;20208;-48
2021/09/09 03:45:32;;;;;;;9.73;8.67;;;14.10;99.90;;;;;;5124832;27;20212;-49
2021/09/09 03:47:59;;;;;;;11.23;9.57;;;14.10;99.90;;;;;;5126764;27;20196;-48
2021/09/09 03:50:26;;;;;;;13.27;10.50;;;14.10;99.90;;;;;;5121372;27;20192;-43
2021/09/09 03:52:52;;;;;;;14.80;10.10;;;14.10;99.90;;;;;;5125429;27;20188;-47
2021/09/09 03:55:19;;;;;;;11.53;9.73;;;14.10;99.90;;;;;;5122733;27;20561;-50
2021/09/09 03:57:46;;;;;;;13.23;10.47;;;14.10;99.90;;;;;;5113237;27;20211;-47
2021/09/09 04:00:15;;;;;;;11.20;9.93;;;14.10;99.90;;;;;;5123452;27;20192;-46
2021/09/09 04:02:42;;;;;;;13.50;10.20;;;14.10;99.90;;;;;;5123216;27;20213;-45
2021/09/09 04:05:10;;;;;;;11.50;10.27;;;14.10;99.90;;;;;;5124553;27;20552;-47
2021/09/09 04:07:36;;;;;;;13.37;10.10;;;14.10;99.90;;;;;;5122508;27;20196;-45
2021/09/09 04:10:04;;;;;;;12.23;10.13;;;14.00;99.90;;;;;;5124898;27;20188;-43
2021/09/09 04:12:31;;;;;;;12.17;10.83;;;14.00;99.90;;;;;;5108160;27;20250;-48
2021/09/09 04:14:58;;;;;;;13.13;10.27;;;13.90;99.90;;;;;;5120927;27;20215;-44
2021/09/09 04:17:26;;;;;;;13.80;11.20;;;13.90;99.90;;;;;;5134753;27;20192;-49
2021/09/09 04:19:53;;;;;;;10.73;9.63;;;13.90;99.90;;;;;;5145412;27;20192;-52
2021/09/09 04:22:19;;;;;;;10.73;9.70;;;13.90;99.90;;;;;;5142519;27;20572;-51
2021/09/09 04:24:46;;;;;;;12.13;10.03;;;13.90;99.90;;;;;;5144677;27;20267;-49
2021/09/09 04:27:12;;;;;;;14.03;11.97;;;13.90;99.90;;;;;;5136846;27;20184;-52
2021/09/09 04:29:39;;;;;;;14.93;10.97;;;13.90;99.90;;;;;;5115562;27;20196;-52
2021/09/09 04:32:06;;;;;;;13.70;10.93;;;13.90;99.90;;;;;;5124356;27;20189;-48
2021/09/09 04:34:34;;;;;;;14.67;11.40;;;13.90;99.90;;;;;;5121190;27;20204;-47
2021/09/09 04:37:01;;;;;;;13.20;10.40;;;13.90;99.90;;;;;;5125008;27;20684;-44
2021/09/09 04:39:27;;;;;;;14.20;11.13;;;13.90;99.90;;;;;;5120281;27;20176;-48
2021/09/09 04:41:54;;;;;;;15.47;10.97;;;13.90;99.90;;;;;;5124584;27;20216;-44
2021/09/09 04:44:20;;;;;;;12.87;9.90;;;13.80;99.90;;;;;;5108101;27;20583;-52
2021/09/09 04:46:48;;;;;;;12.77;11.13;;;13.90;99.90;;;;;;5123885;27;20283;-45
2021/09/09 04:49:14;;;;;;;13.90;11.93;;;13.80;99.90;;;;;;5122393;27;20275;-50
2021/09/09 04:51:42;;;;;;;14.83;12.20;;;13.80;99.90;;;;;;5122753;27;20192;-49
2021/09/09 04:54:09;;;;;;;16.40;11.90;;;13.80;99.90;;;;;;5123551;27;20551;-48
2021/09/09 04:56:35;;;;;;;14.07;11.30;;;13.80;99.90;;;;;;5120962;27;20192;-47
2021/09/09 04:59:02;;;;;;;14.17;11.10;;;13.80;99.90;;;;;;5108348;27;20205;-50
2021/09/09 05:01:29;;;;;;;12.20;10.70;;;13.90;99.90;;;;;;5119927;27;20197;-46
2021/09/09 05:03:56;;;;;;;12.47;10.77;;;13.90;99.90;;;;;;5124326;27;20216;-45
2021/09/09 05:06:22;;;;;;;13.13;11.03;;;13.90;99.90;;;;;;5120300;27;20204;-49
2021/09/09 05:08:50;;;;;;;12.83;10.70;;;13.90;99.90;;;;;;5124248;27;20199;-48
2021/09/09 05:11:17;;;;;;;14.37;11.73;;;13.90;99.90;;;;;;5121378;27;20642;-48
2021/09/09 05:13:44;;;;;;;13.70;12.03;;;13.80;99.90;;;;;;5119358;27;20193;-44
2021/09/09 05:16:11;;;;;;;17.23;11.93;;;13.80;99.90;;;;;;5106728;27;20207;-51
2021/09/09 05:18:38;;;;;;;15.33;12.70;;;13.80;99.90;;;;;;5125907;27;20191;-45
2021/09/09 05:21:04;;;;;;;15.40;11.30;;;13.80;99.90;;;;;;5128304;27;20593;-48
2021/09/09 05:23:31;;;;;;;15.10;12.90;;;13.70;99.90;;;;;;5124556;27;20185;-48
2021/09/09 05:25:59;;;;;;;12.93;11.60;;;13.80;99.90;;;;;;5128391;27;20189;-44
2021/09/09 05:28:25;;;;;;;16.20;12.37;;;13.80;99.90;;;;;;5124137;27;20801;-47
2021/09/09 05:30:52;;;;;;;21.20;12.67;;;13.80;99.90;;;;;;5112826;27;20216;-44
2021/09/09 05:33:19;;;;;;;13.83;12.40;;;13.70;99.90;;;;;;5124751;27;20196;-47
2021/09/09 05:35:46;;;;;;;18.70;13.17;;;13.70;99.90;;;;;;5127309;27;20204;-46
2021/09/09 05:38:13;;;;;;;19.30;14.80;;;13.70;99.90;;;;;;5126532;27;20273;-51
2021/09/09 05:40:40;;;;;;;19.67;15.23;;;13.80;99.90;;;;;;5125831;27;20176;-43
2021/09/09 05:43:08;;;;;;;20.57;13.27;;;13.80;99.90;;;;;;5127447;27;20590;-49
2021/09/09 05:45:35;;;;;;;17.43;13.47;;;13.90;99.90;;;;;;5129542;27;20310;-46
2021/09/09 05:48:03;;;;;;;16.43;13.50;;;13.90;99.90;;;;;;5114393;27;20201;-48
2021/09/09 05:50:30;;;;;;;20.57;14.87;;;13.90;99.90;;;;;;5123511;27;20955;-43
2021/09/09 05:52:56;;;;;;;16.80;14.43;;;13.90;99.90;;;;;;5127993;27;20193;-49
2021/09/09 05:55:23;;;;;;;16.77;14.60;;;14.00;99.90;;;;;;5123612;27;20208;-47
2021/09/09 05:57:49;;;;;;;18.33;14.83;;;14.10;99.90;;;;;;5126838;27;20193;-48
2021/09/09 06:00:17;;;;;;;20.60;13.93;;;14.10;99.90;;;;;;5124882;27;20204;-48
2021/09/09 06:02:45;;;;;;;18.50;14.37;;;14.20;99.90;;;;;;5110765;27;20439;-43
2021/09/09 06:05:13;;;;;;;18.87;13.63;;;14.20;99.90;;;;;;5125720;27;20239;-50
2021/09/09 06:07:40;;;;;;;17.57;14.57;;;14.30;99.90;;;;;;5125516;27;20892;-44
2021/09/09 06:10:09;;;;;;;17.07;14.20;;;14.40;99.90;;;;;;5126712;27;20192;-51
2021/09/09 06:12:36;;;;;;;17.90;15.50;;;14.40;99.90;;;;;;5124663;27;20177;-51
2021/09/09 06:15:04;;;;;;;17.67;14.47;;;14.50;99.90;;;;;;5131927;27;20220;-47
2021/09/09 06:17:32;;;;;;;20.17;14.13;;;14.60;99.90;;;;;;5113338;27;20197;-44
2021/09/09 06:19:59;;;;;;;17.37;14.17;;;14.60;99.90;;;;;;5126687;27;20286;-49
2021/09/09 06:22:25;;;;;;;17.77;14.10;;;14.70;99.90;;;;;;5122954;27;20227;-44
2021/09/09 06:24:52;;;;;;;15.80;12.53;;;14.80;99.90;;;;;;5127392;27;20215;-47
2021/09/09 06:27:18;;;;;;;17.23;15.23;;;14.80;99.90;;;;;;5123873;27;20188;-49
2021/09/09 06:29:45;;;;;;;19.93;14.87;;;14.90;99.90;;;;;;5126310;27;20185;-48
2021/09/09 06:32:12;;;;;;;16.40;13.10;;;15.00;99.90;;;;;;5109425;27;20208;-49
2021/09/09 06:34:39;;;;;;;17.93;14.63;;;15.10;99.90;;;;;;5124349;27;20217;-46
2021/09/09 06:37:06;;;;;;;17.63;13.93;;;15.10;99.90;;;;;;5126429;27;20248;-46
2021/09/09 06:39:33;;;;;;;16.80;14.43;;;15.20;99.90;;;;;;5123266;27;20247;-48
2021/09/09 06:41:59;;;;;;;15.90;14.10;;;15.20;99.90;;;;;;5126785;27;20224;-49
2021/09/09 06:44:26;;;;;;;13.90;12.37;;;15.30;99.90;;;;;;5124864;27;20945;-44
2021/09/09 06:46:52;;;;;;;16.90;13.00;;;15.40;99.90;;;;;;5138672;27;20221;-45
2021/09/09 06:49:19;;;;;;;15.83;14.13;;;15.50;99.90;;;;;;5111342;27;20204;-48
2021/09/09 06:51:47;;;;;;;16.83;13.37;;;15.50;99.90;;;;;;5126223;27;20193;-46
2021/09/09 06:54:15;;;;;;;19.43;13.80;;;15.60;99.90;;;;;;5125061;27;20220;-51
2021/09/09 06:56:41;;;;;;;13.20;11.90;;;15.60;99.90;;;;;;5124089;27;20897;-44
2021/09/09 06:59:08;;;;;;;16.43;12.73;;;15.80;99.90;;;;;;5125526;27;20189;-48
2021/09/09 07:01:35;;;;;;;16.53;14.10;;;15.80;99.90;;;;;;5123476;27;20268;-43
2021/09/09 07:04:01;;;;;;;15.80;13.23;;;15.90;99.90;;;;;;5112810;27;20220;-49
2021/09/09 07:06:28;;;;;;;14.70;13.20;;;16.00;99.90;;;;;;5122211;27;20915;-47
2021/09/09 07:08:56;;;;;;;16.23;12.70;;;16.20;99.90;;;;;;5126017;27;20263;-46
2021/09/09 07:11:22;;;;;;;14.17;11.67;;;16.30;99.90;;;;;;5122874;27;20342;-45
2021/09/09 07:13:49;;;;;;;13.47;12.07;;;16.40;99.90;;;;;;5122832;27;20189;-48
2021/09/09 07:16:16;;;;;;;15.27;13.03;;;16.40;99.90;;;;;;5135791;27;20195;-45
2021/09/09 07:18:42;;;;;;;16.43;12.70;;;16.50;99.90;;;;;;5115688;27;20204;-48
2021/09/09 07:21:09;;;;;;;14.87;12.70;;;16.50;99.90;;;;;;5125153;27;20557;-49
2021/09/09 07:23:35;;;;;;;18.23;12.30;;;16.60;99.90;;;;;;5123056;27;20215;-45
2021/09/09 07:26:03;;;;;;;15.57;12.47;;;16.70;99.90;;;;;;5126060;27;20185;-45
2021/09/09 07:28:30;;;;;;;14.27;12.10;;;16.80;99.90;;;;;;5121888;27;20207;-48
2021/09/09 07:30:57;;;;;;;13.37;11.97;;;17.00;99.90;;;;;;5125602;27;20185;-44
2021/09/09 07:33:23;;;;;;;14.20;10.73;;;17.10;99.90;;;;;;5110003;27;20195;-45
2021/09/09 07:35:50;;;;;;;13.97;10.97;;;17.20;99.90;;;;;;5122698;27;20217;-47
2021/09/09 07:38:17;;;;;;;12.00;10.70;;;17.40;99.90;;;;;;5122392;27;20196;-46
2021/09/09 07:40:43;;;;;;;11.93;10.60;;;17.60;99.90;;;;;;5124226;27;20181;-44
2021/09/09 07:43:11;;;;;;;12.67;11.03;;;17.60;99.90;;;;;;5124570;27;20581;-50
2021/09/09 07:45:38;;;;;;;12.60;10.07;;;17.70;99.90;;;;;;5127665;27;20287;-45
2021/09/09 07:48:05;;;;;;;11.43;10.20;;;17.80;99.90;;;;;;5145483;27;20200;-46
2021/09/09 07:50:32;;;;;;;11.47;10.27;;;17.90;99.90;;;;;;5116705;27;20232;-46
2021/09/09 07:52:58;;;;;;;13.90;10.40;;;18.10;99.90;;;;;;5125483;27;20208;-43
2021/09/09 07:55:25;;;;;;;13.00;10.03;;;18.20;99.90;;;;;;5121219;27;20800;-47
2021/09/09 07:57:52;;;;;;;11.37;9.67;;;18.40;99.90;;;;;;5124325;27;20196;-48
2021/09/09 08:00:19;;;;;;;12.07;10.10;;;18.50;99.90;;;;;;5122129;27;20189;-51
2021/09/09 08:02:46;;;;;;;14.77;10.17;;;18.70;99.90;;;;;;5124503;27;20512;-46
2021/09/09 08:05:13;;;;;;;13.40;10.33;;;18.80;99.90;;;;;;5112989;27;20220;-44
2021/09/09 08:07:41;;;;;;;12.83;9.23;;;18.80;99.90;;;;;;5123065;27;20192;-46
2021/09/09 08:10:10;;;;;;;10.43;9.33;;;18.90;99.90;;;;;;5124213;27;20181;-51
2021/09/09 08:12:37;;;;;;;13.83;9.07;;;19.10;99.90;;;;;;5122643;27;20207;-48
2021/09/09 08:15:04;;;;;;;11.13;9.83;;;19.20;99.90;;;;;;5129835;27;20280;-46
2021/09/09 08:17:32;;;;;;;10.60;9.20;;;19.30;99.90;;;;;;5136414;27;20267;-44
2021/09/09 08:19:59;;;;;;;12.07;9.27;;;19.40;99.90;;;;;;5145797;27;20197;-44
2021/09/09 08:22:26;;;;;;;9.30;8.40;;;19.40;99.90;;;;;;5108099;27;20223;-46
2021/09/09 08:24:53;;;;;;;10.13;9.13;;;19.50;99.90;;;;;;5124860;27;20265;-44
2021/09/09 08:27:20;;;;;;;10.00;9.10;;;19.50;99.90;;;;;;5121204;27;20767;-47
2021/09/09 08:29:47;;;;;;;10.37;8.93;;;19.50;99.90;;;;;;5124235;27;20208;-45
2021/09/09 08:32:13;;;;;;;9.43;8.43;;;19.60;99.90;;;;;;5122751;27;20189;-48
2021/09/09 08:34:41;;;;;;;10.70;8.63;;;19.70;99.90;;;;;;5122958;27;20209;-44
2021/09/09 08:37:08;;;;;;;9.60;8.70;;;19.80;99.90;;;;;;5108331;27;20680;-46
2021/09/09 08:39:35;;;;;;;10.43;8.43;;;19.90;99.90;;;;;;5121231;27;20196;-50
2021/09/09 08:42:03;;;;;;;9.60;8.60;;;19.90;99.90;;;;;;5124354;27;20185;-53
2021/09/09 08:44:29;;;;;;;9.77;8.77;;;20.10;99.90;;;;;;5122931;27;20219;-45
2021/09/09 08:46:56;;;;;;;10.43;8.30;;;20.30;99.90;;;;;;5136470;27;20196;-46
2021/09/09 08:49:25;;;;;;;9.93;7.90;;;20.40;99.90;;;;;;5141235;27;20188;-48
2021/09/09 08:51:53;;;;;;;9.10;8.30;;;20.40;99.90;;;;;;5125679;27;20720;-47
2021/09/09 08:54:20;;;;;;;10.23;8.00;;;20.50;99.90;;;;;;5120720;27;20212;-46
2021/09/09 08:56:47;;;;;;;10.60;8.17;;;20.60;99.90;;;;;;5122598;27;20196;-45
2021/09/09 08:59:14;;;;;;;10.33;8.13;;;20.70;99.90;;;;;;5122208;27;20196;-49
2021/09/09 09:02:03;;;;;;;10.27;8.33;;;20.80;99.90;;;;;;5122536;27;20180;-44
2021/09/09 09:04:30;;;;;;;11.40;8.33;;;20.90;99.90;;;;;;5120202;27;20212;-46
2021/09/09 09:06:59;;;;;;;9.77;8.23;;;21.00;99.90;;;;;;5124158;27;20200;-45
2021/09/09 09:09:26;;;;;;;8.63;7.83;;;21.00;99.90;;;;;;5107009;27;20204;-46
2021/09/09 09:11:53;;;;;;;11.33;8.30;;;21.10;99.90;;;;;;5124322;27;20196;-47
2021/09/09 09:14:22;;;;;;;13.83;8.80;;;21.10;99.90;;;;;;5122165;27;20211;-50
2021/09/09 09:16:51;;;;;;;8.87;7.97;;;21.10;99.90;;;;;;5136233;27;20797;-45
2021/09/09 09:19:20;;;;;;;9.73;8.77;;;21.20;99.90;;;;;;5142073;27;20575;-50
2021/09/09 09:21:51;;;;;;;10.20;8.03;;;21.20;99.90;;;;;;5144287;27;20199;-46
2021/09/09 09:24:20;;;;;;;9.07;7.87;;;21.20;99.90;;;;;;5107040;27;20212;-47
2021/09/09 09:27:07;;;;;;;7.80;7.10;;;21.30;99.90;;;;;;5123696;27;20199;-45
2021/09/09 09:29:34;;;;;;;9.37;7.83;;;21.50;99.90;;;;;;5120615;27;20188;-46
2021/09/09 09:32:16;;;;;;;7.50;6.80;;;21.50;99.90;;;;;;5124038;27;20208;-44
2021/09/09 09:34:44;;;;;;;8.50;7.50;;;21.70;99.90;;;;;;5122539;27;20211;-46
2021/09/09 09:37:12;;;;;;;7.23;6.63;;;21.80;99.90;;;;;;5122893;27;20192;-47
2021/09/09 09:39:45;;;;;;;9.57;7.30;;;21.90;99.90;;;;;;5105652;27;20196;-44
2021/09/09 09:42:12;;;;;;;8.43;6.50;;;21.90;99.90;;;;;;5122444;27;20666;-46
2021/09/09 09:44:40;;;;;;;9.50;6.80;;;22.00;99.90;;;;;;5125349;27;20226;-43
2021/09/09 09:47:09;;;;;;;7.07;6.37;;;22.10;99.90;;;;;;5135386;27;20227;-49
2021/09/09 09:49:39;;;;;;;7.50;6.47;;;22.20;99.90;;;;;;5141778;27;20184;-46
2021/09/09 09:52:08;;;;;;;7.80;6.80;;;22.40;99.90;;;;;;5144574;27;20279;-47
2021/09/09 09:54:35;;;;;;;10.23;6.40;;;22.60;99.90;;;;;;5123766;27;20252;-48
2021/09/09 09:57:04;;;;;;;8.53;6.40;;;22.60;99.90;;;;;;5122698;27;20307;-47
2021/09/09 09:59:31;;;;;;;8.57;6.68;;;22.60;99.90;;;;;;5119762;27;20181;-47
2021/09/09 10:02:00;;;;;;;7.53;6.93;;;22.70;99.90;;;;;;5125648;27;20192;-49
2021/09/09 10:04:27;;;;;;;8.65;6.45;;;22.80;99.90;;;;;;5123380;27;20220;-49
2021/09/09 10:06:54;;;;;;;7.25;6.53;;;22.90;99.90;;;;;;5127614;27;20188;-46
2021/09/09 10:09:21;;;;;;;7.38;6.68;;;23.00;99.90;;;;;;5123760;27;20200;-50
2021/09/09 10:11:48;;;;;;;7.63;6.82;;;23.00;99.90;;;;;;5116661;27;20209;-44
2021/09/09 10:14:26;;;;;;;8.30;6.70;;;23.10;99.90;;;;;;5125779;27;20223;-50
2021/09/09 10:16:56;;;;;;;7.60;6.40;;;23.20;99.90;;;;;;5139296;27;20195;-43
2021/09/09 10:19:25;;;;;;;6.57;5.97;;;23.20;99.90;;;;;;5144004;27;20269;-48
2021/09/09 10:22:02;;;;;;;9.18;6.30;;;23.40;99.90;;;;;;5147659;27;20196;-44
2021/09/09 10:24:30;;;;;;;6.93;6.25;;;23.40;99.90;;;;;;5143840;27;20226;-44
2021/09/09 10:27:16;;;;;;;9.20;6.97;;;23.50;99.90;;;;;;5124615;27;20208;-49
2021/09/09 10:29:57;;;;;;;8.30;6.63;;;23.40;99.90;;;;;;5125556;27;20201;-48
2021/09/09 10:32:54;;;;;;;7.20;5.97;;;23.40;99.90;;;;;;5122842;27;20193;-48
2021/09/09 10:35:32;;;;;;;7.07;6.20;;;23.50;99.90;;;;;;5123524;27;20219;-44
2021/09/09 10:38:16;;;;;;;6.03;5.47;;;23.60;99.90;;;;;;5126925;27;20200;-47
2021/09/09 10:40:45;;;;;;;7.38;5.80;;;23.80;99.90;;;;;;5125263;27;20505;-44
2021/09/09 10:43:14;;;;;;;7.28;6.55;;;23.90;99.90;;;;;;5109381;27;20210;-49
2021/09/09 10:45:44;;;;;;;6.93;5.80;;;24.00;99.90;;;;;;5129102;27;20939;-47
2021/09/09 10:48:20;;;;;;;7.32;5.93;;;23.90;99.90;;;;;;5104966;28;20193;-46
2021/09/09 10:50:58;;;;;;;9.45;5.82;;;23.90;99.90;;;;;;5105527;28;20681;-46
2021/09/09 10:53:34;;;;;;;10.52;5.85;;;23.90;99.90;;;;;;5102045;28;20189;-48
2021/09/09 10:56:09;;;;;;;7.90;6.10;;;23.90;99.90;;;;;;5106555;28;20246;-47
2021/09/09 10:58:36;;;;;;;5.95;5.40;;;24.00;99.90;;;;;;5102320;27;20276;-46
2021/09/09 11:01:05;;;;;;;9.05;5.72;;;24.10;98.80;;;;;;5126396;27;20197;-44
2021/09/09 11:03:36;;;;;;;6.50;5.90;;;24.30;98.00;;;;;;5122599;27;20296;-45
2021/09/09 11:06:03;;;;;;;6.78;5.45;;;24.40;96.80;;;;;;5126523;27;20189;-51
2021/09/09 11:08:29;;;;;;;7.22;5.28;;;24.50;95.80;;;;;;5122385;27;20395;-51
2021/09/09 11:10:57;;;;;;;8.05;5.95;;;24.60;94.50;;;;;;5126081;27;20197;-48
2021/09/09 11:13:24;;;;;;;8.02;5.57;;;24.60;93.90;;;;;;5109453;27;20650;-52
2021/09/09 11:15:51;;;;;;;6.82;6.22;;;24.60;93.70;;;;;;5123352;27;20303;-45
2021/09/09 11:18:27;;;;;;;6.78;5.72;;;24.70;93.30;;;;;;5123764;27;20203;-50
2021/09/09 11:21:07;;;;;;;6.97;5.97;;;24.80;93.80;;;;;;5126005;27;20565;-45
2021/09/09 11:23:35;;;;;;;7.55;6.07;;;24.90;93.10;;;;;;5122771;27;20292;-44
2021/09/09 11:26:13;;;;;;;7.47;6.20;;;24.90;93.00;;;;;;5126209;27;20199;-46
2021/09/09 11:28:41;;;;;;;6.15;5.57;;;24.80;93.40;;;;;;5123891;27;20192;-47
2021/09/09 11:31:10;;;;;;;6.43;5.68;;;24.80;93.70;;;;;;5109891;27;20569;-50
2021/09/09 11:33:51;;;;;;;7.18;6.22;;;24.90;93.80;;;;;;5123080;27;20882;-47
2021/09/09 11:36:19;;;;;;;6.80;6.07;;;25.00;93.00;;;;;;5123177;27;20188;-53
2021/09/09 11:38:46;;;;;;;7.22;5.65;;;25.10;92.20;;;;;;5124845;27;20662;-44
2021/09/09 11:41:16;;;;;;;6.65;5.95;;;25.10;91.20;;;;;;5124027;27;20192;-47
2021/09/09 11:43:49;;;;;;;8.18;6.03;;;25.20;91.20;;;;;;5120615;27;20265;-48
2021/09/09 11:46:24;;;;;;;6.97;6.28;;;25.20;91.00;;;;;;5105627;27;20201;-47
2021/09/09 11:48:53;;;;;;;7.53;6.15;;;25.20;90.80;;;;;;5125508;27;20589;-45
2021/09/09 11:51:34;;;;;;;7.78;6.38;;;25.20;91.10;;;;;;5122061;27;20189;-51
2021/09/09 11:54:02;;;;;;;7.07;6.03;;;25.30;90.50;;;;;;5125327;27;20210;-49
2021/09/09 11:56:29;;;;;;;6.03;5.53;;;25.30;90.30;;;;;;5121234;27;20185;-47
2021/09/09 11:59:01;;;;;;;8.40;6.20;;;25.40;91.50;;;;;;5124605;27;20189;-49
2021/09/09 12:01:28;;;;;;;6.07;5.30;;;25.30;91.70;;;;;;5108404;27;21479;-48
2021/09/09 12:03:58;;;;;;;7.93;6.70;;;25.40;90.50;;;;;;5124683;27;20213;-49
2021/09/09 12:06:25;;;;;;;7.00;5.88;;;25.50;89.80;;;;;;5121095;27;20189;-45
2021/09/09 12:08:51;;;;;;;8.30;6.35;;;25.60;88.20;;;;;;5124752;27;20637;-49
2021/09/09 12:11:18;;;;;;;7.55;6.00;;;25.60;90.00;;;;;;5122532;27;20553;-51
2021/09/09 12:13:45;;;;;;;6.93;5.97;;;25.60;89.70;;;;;;5120216;27;20189;-46
2021/09/09 12:16:15;;;;;;;8.10;6.60;;;25.80;88.30;;;;;;5135322;27;20195;-47
2021/09/09 12:18:42;;;;;;;6.30;5.72;;;25.90;89.20;;;;;;5117000;27;20204;-47
2021/09/09 12:21:13;;;;;;;8.27;6.28;;;25.80;89.00;;;;;;5123679;27;20193;-47
2021/09/09 12:23:55;;;;;;;8.93;6.38;;;25.80;88.10;;;;;;5122682;27;20339;-45
2021/09/09 12:26:22;;;;;;;8.45;5.97;;;25.90;85.80;;;;;;5121292;27;20189;-45
2021/09/09 12:28:48;;;;;;;8.60;6.05;;;25.90;85.00;;;;;;5124256;27;20665;-47
2021/09/09 12:31:15;;;;;;;6.93;6.20;;;25.90;85.40;;;;;;5122863;27;20185;-45
2021/09/09 12:33:53;;;;;;;6.05;5.55;;;25.90;83.60;;;;;;5110243;27;20203;-45
2021/09/09 12:36:22;;;;;;;6.32;5.78;;;26.00;84.00;;;;;;5121373;27;20192;-47
2021/09/09 12:38:59;;;;;;;7.03;5.88;;;26.10;81.60;;;;;;5124339;27;20180;-45
2021/09/09 12:41:29;;;;;;;6.35;5.50;;;26.20;79.90;;;;;;5120365;27;20180;-47
2021/09/09 12:44:09;;;;;;;6.35;5.70;;;26.30;80.60;;;;;;5122338;27;20209;-44